createdAt,value
2022-10-19T00:01:24.094Z,3.70
2022-10-19T00:03:53.822Z,2.72
2022-10-19T00:06:26.830Z,3.83
2022-10-19T00:08:55.698Z,3.40
2022-10-19T00:11:23.844Z,2.80
2022-10-19T00:13:51.352Z,3.80
2022-10-19T00:16:17.992Z,2.35
2022-10-19T00:18:45.475Z,3.35
2022-10-19T00:21:14.721Z,2.50
2022-10-19T00:23:44.257Z,2.53
2022-10-19T00:26:11.995Z,4.07
2022-10-19T00:28:38.750Z,3.00
2022-10-19T00:36:04.134Z,2.38
2022-10-19T00:38:31.109Z,2.33
2022-10-19T00:40:57.613Z,2.92
2022-10-19T00:43:27.405Z,2.42
2022-10-19T00:45:57.056Z,2.95
2022-10-19T00:48:28.218Z,2.75
2022-10-19T00:50:59.862Z,2.25
2022-10-19T00:53:29.110Z,2.40
2022-10-19T00:55:57.349Z,2.10
2022-10-19T00:58:24.334Z,2.30
2022-10-19T01:00:51.047Z,1.85
2022-10-19T01:05:47.551Z,1.92
2022-10-19T01:08:14.147Z,2.90
2022-10-19T01:10:59.862Z,1.88
2022-10-19T01:13:51.115Z,2.20
2022-10-19T01:16:36.687Z,1.85
2022-10-19T01:19:28.210Z,1.88
2022-10-19T01:22:03.736Z,2.80
2022-10-19T01:25:02.430Z,2.50
2022-10-19T01:28:00.043Z,1.45
2022-10-19T01:30:47.204Z,1.43
2022-10-19T01:33:35.100Z,2.00
2022-10-19T01:39:00.903Z,1.50
2022-10-19T01:41:54.579Z,1.80
2022-10-19T01:44:27.013Z,1.70
2022-10-19T01:46:58.848Z,1.20
2022-10-19T01:49:40.238Z,1.45
2022-10-19T01:52:11.012Z,1.48
2022-10-19T01:54:42.715Z,1.60
2022-10-19T01:57:12.737Z,1.50
2022-10-19T01:59:41.834Z,1.63
2022-10-19T02:02:10.220Z,2.13
2022-10-19T02:04:38.371Z,1.75
2022-10-19T02:07:07.361Z,1.15
2022-10-19T02:09:34.000Z,1.52
2022-10-19T02:12:04.544Z,1.23
2022-10-19T02:14:36.591Z,2.10
2022-10-19T02:17:34.354Z,1.80
2022-10-19T02:20:01.453Z,1.50
2022-10-19T02:22:28.332Z,1.40
2022-10-19T02:24:54.986Z,1.75
2022-10-19T02:27:21.765Z,1.50
2022-10-19T02:32:15.286Z,1.92
2022-10-19T02:34:42.397Z,1.20
2022-10-19T02:37:09.533Z,1.70
2022-10-19T02:39:36.072Z,1.45
2022-10-19T02:42:17.219Z,1.40
2022-10-19T02:44:52.495Z,1.60
2022-10-19T02:47:24.806Z,1.80
2022-10-19T02:49:52.198Z,1.30
2022-10-19T02:52:18.907Z,2.08
2022-10-19T02:54:48.256Z,1.58
2022-10-19T02:57:20.165Z,1.50
2022-10-19T02:59:47.045Z,1.48
2022-10-19T03:02:15.342Z,2.00
2022-10-19T03:04:41.954Z,2.83
2022-10-19T03:07:10.635Z,2.05
2022-10-19T03:09:37.325Z,1.40
2022-10-19T03:12:06.577Z,1.95
2022-10-19T03:14:33.203Z,1.55
2022-10-19T03:19:47.367Z,2.30
2022-10-19T03:22:15.158Z,1.67
2022-10-19T03:24:41.675Z,1.92
2022-10-19T03:27:08.328Z,1.58
2022-10-19T03:36:17.059Z,2.03
2022-10-19T03:38:51.689Z,2.03
2022-10-19T03:41:23.047Z,1.42
2022-10-19T03:43:50.294Z,2.15
2022-10-19T03:46:53.509Z,1.63
2022-10-19T03:49:20.089Z,1.48
2022-10-19T03:51:47.715Z,0.98
2022-10-19T03:54:16.037Z,0.75
2022-10-19T03:56:43.041Z,1.10
2022-10-19T03:59:13.377Z,0.90
2022-10-19T04:01:46.956Z,1.08
2022-10-19T04:04:16.824Z,1.05
2022-10-19T04:06:46.200Z,0.77
2022-10-19T04:09:16.950Z,0.90
2022-10-19T04:11:51.336Z,0.80
2022-10-19T04:14:31.807Z,0.90
2022-10-19T04:17:00.062Z,1.02
2022-10-19T04:19:26.535Z,0.70
2022-10-19T04:21:53.255Z,0.77
2022-10-19T04:24:19.871Z,0.85
2022-10-19T04:26:52.141Z,1.02
2022-10-19T04:29:21.942Z,1.20
2022-10-19T04:31:51.955Z,0.82
2022-10-19T04:34:19.120Z,1.27
2022-10-19T04:36:49.350Z,1.45
2022-10-19T04:39:15.977Z,0.93
2022-10-19T04:41:57.086Z,0.93
2022-10-19T04:50:36.714Z,0.85
2022-10-19T04:53:03.676Z,1.38
2022-10-19T04:55:30.338Z,0.95
2022-10-19T04:57:56.901Z,0.85
2022-10-19T05:00:27.944Z,1.05
2022-10-19T05:02:54.601Z,1.10
2022-10-19T05:05:24.807Z,1.40
2022-10-19T05:07:51.533Z,0.90
2022-10-19T05:12:48.367Z,1.17
2022-10-19T05:15:14.922Z,0.90
2022-10-19T05:42:07.259Z,1.00
2022-10-19T05:44:34.317Z,1.08
2022-10-19T05:47:01.013Z,1.00
2022-10-19T05:49:33.626Z,1.60
2022-10-19T05:52:02.224Z,1.25
2022-10-19T05:54:58.933Z,1.85
2022-10-19T05:57:43.195Z,0.90
2022-10-19T06:00:33.364Z,0.95
2022-10-19T06:17:39.014Z,1.15
2022-10-19T06:22:52.687Z,1.08
2022-10-19T06:25:34.893Z,1.08
2022-10-19T06:41:59.599Z,1.30
2022-10-19T06:49:54.652Z,0.82
2022-10-19T07:22:30.156Z,0.93
2022-10-19T07:54:50.334Z,1.05
2022-10-19T21:44:00.249Z,4.05
2022-10-19T21:58:54.705Z,2.72
2022-10-19T22:02:17.437Z,3.60
2022-10-19T22:15:14.808Z,3.45
2022-10-19T22:17:53.948Z,3.03
2022-10-19T22:20:20.864Z,2.80
2022-10-19T22:22:54.145Z,2.63
2022-10-19T22:25:41.357Z,2.33
2022-10-19T22:28:11.236Z,2.97
2022-10-19T22:33:05.210Z,2.40
2022-10-19T22:35:58.661Z,2.60
2022-10-19T23:13:31.365Z,2.33
2022-10-19T23:16:01.251Z,2.95
2022-10-19T23:29:41.934Z,2.75
